Time;durP1;ratioP1;P1;durP2;ratioP2;P2;SDS_P1;SDS_P2;PMS_P1;PMS_P2;Temp;Humidity;BMP_temperature;BMP_pressure;BME280_temperature;BME280_humidity;BME280_pressure;Samples;Min_cycle;Max_cycle;Signal;HPM_P1;HPM_P2
2022/03/01 00:01:54;;;;;;;19.58;13.20;;;;;;;;;;5069695;27;100321;-68
2022/03/01 00:04:20;;;;;;;17.17;12.57;;;;;;;;;;5058999;27;100051;-68
2022/03/01 00:06:47;;;;;;;23.08;12.70;;;;;;;;;;5064841;27;101188;-68
2022/03/01 00:09:13;;;;;;;18.88;12.80;;;;;;;;;;5057767;27;98926;-68
2022/03/01 00:11:40;;;;;;;21.95;12.45;;;;;;;;;;5058944;27;99740;-68
2022/03/01 00:14:06;;;;;;;19.70;12.00;;;;;;;;;;5061195;27;99819;-68
2022/03/01 00:16:33;;;;;;;18.38;12.30;;;;;;;;;;5061343;27;99069;-68
2022/03/01 00:19:00;;;;;;;16.98;12.02;;;;;;;;;;5057038;27;99182;-68
2022/03/01 00:21:26;;;;;;;15.48;12.18;;;;;;;;;;5063077;27;99773;-67
2022/03/01 00:23:52;;;;;;;15.23;12.55;;;;;;;;;;5067746;27;97895;-67
2022/03/01 00:26:19;;;;;;;21.85;12.88;;;;;;;;;;5068668;27;100154;-67
2022/03/01 00:28:45;;;;;;;14.88;12.23;;;;;;;;;;5044612;27;99637;-67
2022/03/01 00:31:12;;;;;;;16.27;12.05;;;;;;;;;;5060973;27;99962;-67
2022/03/01 00:33:38;;;;;;;16.08;12.35;;;;;;;;;;5068034;27;100439;-67
2022/03/01 00:36:05;;;;;;;21.35;13.05;;;;;;;;;;5057204;27;98631;-67
2022/03/01 00:38:32;;;;;;;16.65;12.38;;;;;;;;;;5067775;27;99098;-68
2022/03/01 00:40:58;;;;;;;18.48;12.77;;;;;;;;;;5058764;27;100783;-68
2022/03/01 00:43:25;;;;;;;24.15;12.40;;;;;;;;;;5057137;27;100170;-67
2022/03/01 00:45:52;;;;;;;22.42;13.15;;;;;;;;;;5067071;27;100616;-67
2022/03/01 00:48:18;;;;;;;16.77;12.15;;;;;;;;;;5061486;27;97787;-68
2022/03/01 00:50:45;;;;;;;13.35;11.52;;;;;;;;;;5068530;27;99302;-67
2022/03/01 00:53:11;;;;;;;22.45;11.85;;;;;;;;;;5058913;27;100533;-67
2022/03/01 00:55:38;;;;;;;14.43;12.20;;;;;;;;;;5066850;27;99473;-67
2022/03/01 00:58:04;;;;;;;14.93;11.82;;;;;;;;;;5067767;27;100711;-67
2022/03/01 01:00:32;;;;;;;17.88;12.57;;;;;;;;;;5057957;27;99272;-67
2022/03/01 01:02:59;;;;;;;18.45;11.65;;;;;;;;;;5049652;27;98556;-67
2022/03/01 01:05:25;;;;;;;15.65;11.52;;;;;;;;;;5058875;27;99940;-67
2022/03/01 01:07:52;;;;;;;14.52;11.82;;;;;;;;;;5067337;27;100363;-67
2022/03/01 01:10:19;;;;;;;20.63;12.55;;;;;;;;;;5059600;27;99349;-68
2022/03/01 01:12:45;;;;;;;17.27;11.55;;;;;;;;;;5063787;27;99528;-68
2022/03/01 01:15:14;;;;;;;15.40;11.50;;;;;;;;;;5067423;27;98542;-68
2022/03/01 01:17:41;;;;;;;21.48;12.68;;;;;;;;;;5056260;27;100726;-68
2022/03/01 01:20:08;;;;;;;16.73;12.82;;;;;;;;;;5065725;27;100874;-68
2022/03/01 01:22:40;;;;;;;14.27;11.70;;;;;;;;;;5064739;27;98606;-68
2022/03/01 01:25:09;;;;;;;14.65;12.13;;;;;;;;;;5056590;27;99353;-67
2022/03/01 01:27:37;;;;;;;14.00;12.35;;;;;;;;;;5065936;27;99316;-68
2022/03/01 01:30:04;;;;;;;16.98;12.38;;;;;;;;;;5063382;27;98607;-68
2022/03/01 01:32:31;;;;;;;18.45;13.00;;;;;;;;;;5058538;27;100379;-68
2022/03/01 01:34:57;;;;;;;15.02;12.23;;;;;;;;;;5057838;27;98515;-69
2022/03/01 01:37:23;;;;;;;15.00;12.55;;;;;;;;;;5059145;27;100102;-68
2022/03/01 01:39:50;;;;;;;22.90;13.07;;;;;;;;;;5060076;27;100455;-67
2022/03/01 01:42:17;;;;;;;24.40;12.15;;;;;;;;;;5068105;27;99922;-68
2022/03/01 01:44:44;;;;;;;15.48;12.52;;;;;;;;;;5063567;27;99649;-67
2022/03/01 01:47:30;;;;;;;17.60;12.50;;;;;;;;;;5058093;27;101012;-69
2022/03/01 01:49:56;;;;;;;15.75;12.52;;;;;;;;;;5062152;27;99907;-66
2022/03/01 01:52:24;;;;;;;18.67;13.77;;;;;;;;;;5059573;27;100056;-66
2022/03/01 01:54:51;;;;;;;17.58;12.30;;;;;;;;;;5052582;27;98522;-67
2022/03/01 01:57:19;;;;;;;21.67;12.77;;;;;;;;;;5058954;27;99929;-67
2022/03/01 01:59:47;;;;;;;17.33;12.70;;;;;;;;;;5047908;27;101888;-68
2022/03/01 02:02:14;;;;;;;15.63;12.50;;;;;;;;;;5066830;27;97786;-67
2022/03/01 02:04:41;;;;;;;16.38;12.82;;;;;;;;;;5065132;27;99646;-68
2022/03/01 02:07:08;;;;;;;18.77;14.05;;;;;;;;;;5059236;27;100768;-68
2022/03/01 02:09:35;;;;;;;19.05;12.20;;;;;;;;;;5052536;27;99399;-67
2022/03/01 02:12:05;;;;;;;20.08;12.65;;;;;;;;;;5070772;27;100630;-67
2022/03/01 02:14:32;;;;;;;17.25;12.95;;;;;;;;;;5058283;27;98645;-67
2022/03/01 02:17:03;;;;;;;16.90;13.68;;;;;;;;;;5059865;27;100364;-67
2022/03/01 02:19:30;;;;;;;16.27;13.15;;;;;;;;;;5066034;27;101606;-68
2022/03/01 02:21:56;;;;;;;19.77;13.05;;;;;;;;;;5058669;27;98804;-66
2022/03/01 02:24:25;;;;;;;19.00;13.52;;;;;;;;;;5055078;27;98538;-67
2022/03/01 02:26:58;;;;;;;17.15;13.80;;;;;;;;;;5053172;27;98486;-67
2022/03/01 02:29:25;;;;;;;15.65;12.55;;;;;;;;;;5058301;27;99611;-67
2022/03/01 02:31:52;;;;;;;16.23;13.60;;;;;;;;;;5064405;27;99237;-67
2022/03/01 02:34:19;;;;;;;17.77;14.20;;;;;;;;;;5062084;27;101510;-67
2022/03/01 02:36:45;;;;;;;17.15;13.85;;;;;;;;;;5058244;27;100794;-68
2022/03/01 02:39:13;;;;;;;18.83;13.18;;;;;;;;;;5052994;27;102680;-68
2022/03/01 02:41:40;;;;;;;18.95;13.15;;;;;;;;;;5061941;27;98616;-67
2022/03/01 02:44:07;;;;;;;18.38;13.57;;;;;;;;;;5059115;27;100037;-68
2022/03/01 02:46:35;;;;;;;18.98;12.88;;;;;;;;;;5059079;27;99393;-68
2022/03/01 02:49:01;;;;;;;27.48;14.25;;;;;;;;;;5058421;27;98474;-67
2022/03/01 02:51:28;;;;;;;15.73;13.98;;;;;;;;;;5066465;27;99405;-67
2022/03/01 02:53:54;;;;;;;17.50;13.68;;;;;;;;;;5049940;27;99205;-68
2022/03/01 02:56:21;;;;;;;17.88;13.00;;;;;;;;;;5059266;27;98609;-68
2022/03/01 02:58:47;;;;;;;18.73;12.82;;;;;;;;;;5060897;27;101047;-67
2022/03/01 03:01:14;;;;;;;17.65;13.25;;;;;;;;;;5056224;27;98589;-67
2022/03/01 03:03:40;;;;;;;18.27;14.25;;;;;;;;;;5061268;27;99975;-67
2022/03/01 03:06:07;;;;;;;17.77;13.50;;;;;;;;;;5056106;27;100250;-67
2022/03/01 03:08:33;;;;;;;20.58;13.30;;;;;;;;;;5055949;27;98543;-67
2022/03/01 03:10:59;;;;;;;20.02;14.13;;;;;;;;;;5062742;27;100439;-68
2022/03/01 03:13:26;;;;;;;19.45;14.38;;;;;;;;;;5058547;27;100774;-68
2022/03/01 03:15:52;;;;;;;17.83;13.55;;;;;;;;;;5059139;27;97766;-68
2022/03/01 03:18:21;;;;;;;18.95;13.65;;;;;;;;;;5060269;27;100566;-68
2022/03/01 03:20:48;;;;;;;24.35;14.85;;;;;;;;;;5059265;27;99844;-68
2022/03/01 03:23:15;;;;;;;16.17;13.35;;;;;;;;;;5056143;27;99823;-68
2022/03/01 03:25:41;;;;;;;19.55;14.50;;;;;;;;;;5057199;27;100020;-68
2022/03/01 03:28:07;;;;;;;20.40;13.55;;;;;;;;;;5057474;27;98584;-68
2022/03/01 03:30:34;;;;;;;17.00;14.18;;;;;;;;;;5055717;27;100386;-68
2022/03/01 03:33:00;;;;;;;19.33;13.68;;;;;;;;;;5066282;27;99546;-68
2022/03/01 03:35:26;;;;;;;19.85;14.68;;;;;;;;;;5069965;27;98866;-67
2022/03/01 03:37:53;;;;;;;19.77;14.30;;;;;;;;;;5061890;27;99958;-67
2022/03/01 03:40:19;;;;;;;18.50;14.18;;;;;;;;;;5069875;27;99419;-68
2022/03/01 03:42:46;;;;;;;18.23;14.18;;;;;;;;;;5066203;27;99257;-67
2022/03/01 03:45:13;;;;;;;17.95;14.23;;;;;;;;;;5062061;27;99355;-67
2022/03/01 03:47:40;;;;;;;19.15;14.40;;;;;;;;;;5057679;27;99742;-67
2022/03/01 03:50:09;;;;;;;19.02;14.00;;;;;;;;;;5068296;27;100959;-67
2022/03/01 03:52:36;;;;;;;17.55;13.73;;;;;;;;;;5067687;27;100735;-67
2022/03/01 03:55:05;;;;;;;21.65;15.07;;;;;;;;;;5062182;27;98509;-67
2022/03/01 03:57:32;;;;;;;17.83;13.82;;;;;;;;;;5058601;27;100365;-67
2022/03/01 03:59:59;;;;;;;19.55;13.95;;;;;;;;;;5062900;27;100647;-67
2022/03/01 04:02:25;;;;;;;19.20;14.93;;;;;;;;;;5065938;27;100290;-67
2022/03/01 04:04:52;;;;;;;19.63;14.35;;;;;;;;;;5070114;27;98521;-67
2022/03/01 04:07:18;;;;;;;19.77;15.23;;;;;;;;;;5067391;27;98746;-67
2022/03/01 04:09:45;;;;;;;21.90;13.80;;;;;;;;;;5060647;27;100445;-67
2022/03/01 04:12:11;;;;;;;18.83;14.75;;;;;;;;;;5059135;27;101024;-67
2022/03/01 04:14:37;;;;;;;17.25;14.02;;;;;;;;;;5062153;27;98588;-67
2022/03/01 04:17:04;;;;;;;20.90;15.00;;;;;;;;;;5058088;27;99821;-67
2022/03/01 04:19:30;;;;;;;19.00;14.10;;;;;;;;;;5061488;27;99430;-67
2022/03/01 04:21:56;;;;;;;20.08;14.07;;;;;;;;;;5063631;27;98638;-67
2022/03/01 04:24:23;;;;;;;22.13;14.48;;;;;;;;;;5061354;27;100541;-68
2022/03/01 04:26:49;;;;;;;27.33;15.88;;;;;;;;;;5067429;27;98615;-67
2022/03/01 04:29:15;;;;;;;19.27;14.93;;;;;;;;;;5065709;27;100396;-67
2022/03/01 04:31:42;;;;;;;19.40;14.63;;;;;;;;;;5058064;27;99679;-68
2022/03/01 04:34:08;;;;;;;18.35;14.30;;;;;;;;;;5061079;27;98647;-68
2022/03/01 04:36:35;;;;;;;18.30;15.27;;;;;;;;;;5065723;27;100037;-68
2022/03/01 04:39:01;;;;;;;28.02;13.70;;;;;;;;;;5059837;27;100432;-68
2022/03/01 04:41:28;;;;;;;22.00;14.90;;;;;;;;;;5061988;27;98604;-68
2022/03/01 04:43:54;;;;;;;16.73;13.82;;;;;;;;;;5068927;27;100192;-68
2022/03/01 04:46:20;;;;;;;19.25;13.48;;;;;;;;;;5065597;27;99430;-68
2022/03/01 04:48:47;;;;;;;26.20;14.60;;;;;;;;;;5060433;27;99166;-68
2022/03/01 04:51:14;;;;;;;18.23;13.95;;;;;;;;;;5061068;27;100220;-66
2022/03/01 04:53:40;;;;;;;23.50;14.68;;;;;;;;;;5069783;27;98984;-67
2022/03/01 04:56:07;;;;;;;17.73;14.45;;;;;;;;;;5059406;27;99443;-67
2022/03/01 04:58:33;;;;;;;16.40;12.70;;;;;;;;;;5067648;27;100250;-66
2022/03/01 05:01:01;;;;;;;20.20;14.55;;;;;;;;;;5058195;27;100671;-67
2022/03/01 05:03:30;;;;;;;17.65;14.27;;;;;;;;;;5061820;27;99751;-67
2022/03/01 05:05:56;;;;;;;22.25;14.55;;;;;;;;;;5060326;27;99612;-67
2022/03/01 05:08:23;;;;;;;20.90;13.80;;;;;;;;;;5068057;27;100299;-67
2022/03/01 05:10:49;;;;;;;17.70;13.32;;;;;;;;;;5066591;27;100401;-66
2022/03/01 05:13:15;;;;;;;20.25;14.80;;;;;;;;;;5052373;27;98625;-67
2022/03/01 05:15:42;;;;;;;31.48;15.50;;;;;;;;;;5060613;27;99546;-67
2022/03/01 05:18:08;;;;;;;20.48;13.82;;;;;;;;;;5062491;27;99423;-67
2022/03/01 05:20:34;;;;;;;26.75;13.98;;;;;;;;;;5068137;27;100665;-67
2022/03/01 05:23:01;;;;;;;17.92;13.75;;;;;;;;;;5068519;27;100007;-67
2022/03/01 05:25:27;;;;;;;20.25;14.68;;;;;;;;;;5059085;27;100139;-67
2022/03/01 05:27:53;;;;;;;18.02;13.10;;;;;;;;;;5061961;27;98609;-67
2022/03/01 05:30:21;;;;;;;15.27;13.13;;;;;;;;;;5057243;27;101452;-67
2022/03/01 05:32:48;;;;;;;18.00;13.90;;;;;;;;;;5061116;27;99384;-67
2022/03/01 05:35:15;;;;;;;18.10;13.25;;;;;;;;;;5061138;27;99355;-65
2022/03/01 05:37:42;;;;;;;16.63;13.05;;;;;;;;;;5067660;27;100300;-68
2022/03/01 05:40:09;;;;;;;17.20;12.63;;;;;;;;;;5067455;27;98515;-67
2022/03/01 05:42:36;;;;;;;17.70;12.02;;;;;;;;;;5057740;27;100608;-68
2022/03/01 05:45:03;;;;;;;19.30;12.75;;;;;;;;;;5065857;27;100216;-68
2022/03/01 05:47:29;;;;;;;16.45;13.50;;;;;;;;;;5067879;27;98639;-67
2022/03/01 05:49:56;;;;;;;15.20;12.95;;;;;;;;;;5063610;27;100141;-67
2022/03/01 05:52:22;;;;;;;17.48;11.98;;;;;;;;;;5066460;27;98874;-67
2022/03/01 05:54:49;;;;;;;18.73;13.57;;;;;;;;;;5056264;27;100120;-67
2022/03/01 05:57:15;;;;;;;18.95;12.75;;;;;;;;;;5059840;27;99118;-67
2022/03/01 05:59:42;;;;;;;17.73;12.65;;;;;;;;;;5059230;27;98931;-67
2022/03/01 06:02:08;;;;;;;21.08;12.20;;;;;;;;;;5061050;27;99255;-67
2022/03/01 06:04:35;;;;;;;14.93;12.27;;;;;;;;;;5057692;27;100097;-67
2022/03/01 06:07:02;;;;;;;15.35;11.93;;;;;;;;;;5061986;27;97851;-67
2022/03/01 06:09:28;;;;;;;17.17;11.50;;;;;;;;;;5058495;27;99613;-67
2022/03/01 06:11:54;;;;;;;17.52;12.13;;;;;;;;;;5063444;27;98722;-67
2022/03/01 06:14:21;;;;;;;16.08;12.05;;;;;;;;;;5055933;27;100072;-68
2022/03/01 06:16:47;;;;;;;19.05;13.13;;;;;;;;;;5065765;27;100928;-68
2022/03/01 06:19:13;;;;;;;16.58;12.55;;;;;;;;;;5057249;27;98500;-68
2022/03/01 06:21:40;;;;;;;16.98;12.30;;;;;;;;;;5061059;27;99404;-67
2022/03/01 06:24:06;;;;;;;14.65;11.60;;;;;;;;;;5057930;27;99368;-68
2022/03/01 06:26:33;;;;;;;17.23;12.77;;;;;;;;;;5060927;27;98530;-68
2022/03/01 06:28:59;;;;;;;21.23;12.48;;;;;;;;;;5056979;27;99763;-67
2022/03/01 06:31:26;;;;;;;16.83;11.68;;;;;;;;;;5069895;27;99105;-67
2022/03/01 06:33:52;;;;;;;15.85;12.85;;;;;;;;;;5059702;27;99232;-67
2022/03/01 06:36:18;;;;;;;15.43;11.88;;;;;;;;;;5065014;27;99893;-67
2022/03/01 06:38:45;;;;;;;20.75;13.02;;;;;;;;;;5056823;27;100990;-67
2022/03/01 06:41:11;;;;;;;17.10;12.98;;;;;;;;;;5059327;27;101382;-67
2022/03/01 06:43:38;;;;;;;22.42;12.45;;;;;;;;;;5066253;27;99479;-67
2022/03/01 06:46:04;;;;;;;19.00;12.38;;;;;;;;;;5058937;27;98668;-67
2022/03/01 06:48:30;;;;;;;20.23;12.48;;;;;;;;;;5061577;27;99446;-67
2022/03/01 06:50:57;;;;;;;16.02;12.65;;;;;;;;;;5065925;27;99231;-67
2022/03/01 06:53:23;;;;;;;15.77;11.85;;;;;;;;;;5057651;27;98557;-66
2022/03/01 06:55:50;;;;;;;16.50;12.40;;;;;;;;;;5056747;27;98980;-67
2022/03/01 06:58:16;;;;;;;16.95;12.88;;;;;;;;;;5059307;27;99073;-68
2022/03/01 07:00:43;;;;;;;20.85;13.07;;;;;;;;;;5060175;27;100238;-67
2022/03/01 07:03:10;;;;;;;15.00;12.05;;;;;;;;;;5059913;27;100660;-67
2022/03/01 07:05:36;;;;;;;19.27;13.82;;;;;;;;;;5062634;27;98523;-67
2022/03/01 07:08:03;;;;;;;18.38;12.38;;;;;;;;;;5064497;27;99329;-67
2022/03/01 07:10:29;;;;;;;21.13;13.20;;;;;;;;;;5061543;27;99415;-67
2022/03/01 07:12:56;;;;;;;22.33;13.88;;;;;;;;;;5067213;27;98513;-67
2022/03/01 07:15:23;;;;;;;20.60;13.23;;;;;;;;;;5065772;27;99234;-67
2022/03/01 07:17:49;;;;;;;16.92;13.25;;;;;;;;;;5060141;27;98680;-66
2022/03/01 07:20:15;;;;;;;18.92;13.98;;;;;;;;;;5069609;27;100071;-67
2022/03/01 07:22:42;;;;;;;19.77;14.60;;;;;;;;;;5064053;27;99579;-67
2022/03/01 07:25:09;;;;;;;16.67;13.40;;;;;;;;;;5060100;27;100333;-68
2022/03/01 07:27:43;;;;;;;18.90;14.45;;;;;;;;;;5061308;27;100149;-68
2022/03/01 07:30:10;;;;;;;16.20;12.93;;;;;;;;;;5065000;27;100357;-68
2022/03/01 07:32:36;;;;;;;22.10;13.77;;;;;;;;;;5070005;27;98849;-67
2022/03/01 07:35:02;;;;;;;19.77;14.18;;;;;;;;;;5068707;27;100347;-67
2022/03/01 07:37:29;;;;;;;20.15;13.93;;;;;;;;;;5073285;27;100217;-67
2022/03/01 07:40:05;;;;;;;18.42;13.48;;;;;;;;;;5070821;27;99983;-68
2022/03/01 07:42:32;;;;;;;17.85;13.45;;;;;;;;;;5065730;27;99135;-67
2022/03/01 07:44:58;;;;;;;18.40;14.18;;;;;;;;;;5067121;27;97838;-67
2022/03/01 07:47:25;;;;;;;18.92;13.55;;;;;;;;;;5062322;27;99260;-67
2022/03/01 07:49:54;;;;;;;19.02;14.80;;;;;;;;;;5069430;27;99424;-67
2022/03/01 07:52:20;;;;;;;18.80;13.25;;;;;;;;;;5069035;27;99508;-66
2022/03/01 07:54:48;;;;;;;26.80;14.40;;;;;;;;;;5069422;27;100723;-66
2022/03/01 07:57:15;;;;;;;22.10;14.52;;;;;;;;;;5069461;27;100171;-66
2022/03/01 07:59:41;;;;;;;17.58;14.93;;;;;;;;;;5072911;27;98625;-66
2022/03/01 08:02:08;;;;;;;21.42;14.38;;;;;;;;;;5068593;27;99340;-67
2022/03/01 08:04:35;;;;;;;23.33;14.73;;;;;;;;;;5068908;27;99812;-67
2022/03/01 08:07:01;;;;;;;22.73;14.75;;;;;;;;;;5068540;27;100110;-67
2022/03/01 08:09:28;;;;;;;21.48;13.88;;;;;;;;;;5070045;27;99694;-67
2022/03/01 08:11:55;;;;;;;21.25;14.02;;;;;;;;;;5069959;27;98550;-67
2022/03/01 08:14:25;;;;;;;21.23;14.25;;;;;;;;;;5068349;27;100439;-68
2022/03/01 08:16:53;;;;;;;27.60;14.10;;;;;;;;;;5062029;27;100834;-67
2022/03/01 08:19:20;;;;;;;23.25;14.20;;;;;;;;;;5071674;27;99284;-67
2022/03/01 08:21:46;;;;;;;21.45;14.75;;;;;;;;;;5068899;27;100311;-67
2022/03/01 08:24:12;;;;;;;20.17;15.20;;;;;;;;;;5069872;27;98526;-67
2022/03/01 08:26:39;;;;;;;20.48;14.38;;;;;;;;;;5069671;27;100323;-67
2022/03/01 08:29:05;;;;;;;22.25;14.32;;;;;;;;;;5068214;27;100347;-67
2022/03/01 08:31:32;;;;;;;17.35;14.50;;;;;;;;;;5069202;27;99688;-67
2022/03/01 08:33:59;;;;;;;19.98;14.95;;;;;;;;;;5069035;27;99210;-67
2022/03/01 08:36:26;;;;;;;22.60;15.00;;;;;;;;;;5069702;27;100662;-67
2022/03/01 08:38:53;;;;;;;23.65;15.80;;;;;;;;;;5069818;27;98501;-67
2022/03/01 08:41:19;;;;;;;22.88;14.95;;;;;;;;;;5066947;27;100562;-67
2022/03/01 08:43:45;;;;;;;20.40;14.85;;;;;;;;;;5063586;27;98593;-67
2022/03/01 08:46:13;;;;;;;17.75;14.63;;;;;;;;;;5063027;27;100029;-67
2022/03/01 08:48:40;;;;;;;29.20;15.65;;;;;;;;;;5061824;27;100609;-67
2022/03/01 08:51:07;;;;;;;20.65;15.90;;;;;;;;;;5062317;27;98603;-67
2022/03/01 08:53:33;;;;;;;23.05;16.60;;;;;;;;;;5066380;27;99833;-67
2022/03/01 08:56:00;;;;;;;24.90;16.67;;;;;;;;;;5060183;27;99568;-67
2022/03/01 08:58:26;;;;;;;21.83;16.33;;;;;;;;;;5056403;27;98786;-68
2022/03/01 09:00:52;;;;;;;18.85;15.95;;;;;;;;;;5063647;27;99293;-67
2022/03/01 09:03:19;;;;;;;21.60;15.65;;;;;;;;;;5067449;27;99414;-67
2022/03/01 09:06:06;;;;;;;30.92;17.42;;;;;;;;;;5063732;27;99959;-67
2022/03/01 09:08:33;;;;;;;28.52;16.38;;;;;;;;;;5055178;27;101042;-66
2022/03/01 09:10:59;;;;;;;22.73;15.50;;;;;;;;;;5053664;27;100469;-66
2022/03/01 09:13:26;;;;;;;23.10;16.45;;;;;;;;;;5062658;27;99682;-67
2022/03/01 09:15:52;;;;;;;24.10;16.25;;;;;;;;;;5066336;27;99412;-67
2022/03/01 09:18:21;;;;;;;18.05;15.93;;;;;;;;;;5064946;27;100933;-67
2022/03/01 09:20:48;;;;;;;19.13;15.20;;;;;;;;;;5062602;27;99284;-66
2022/03/01 09:23:14;;;;;;;21.50;15.32;;;;;;;;;;5055895;27;100784;-67
2022/03/01 09:25:41;;;;;;;20.80;14.13;;;;;;;;;;5068697;27;99821;-68
2022/03/01 09:28:07;;;;;;;22.20;14.80;;;;;;;;;;5055872;27;100246;-68
2022/03/01 09:30:34;;;;;;;18.40;14.98;;;;;;;;;;5057742;27;101086;-67
2022/03/01 09:33:01;;;;;;;22.25;16.10;;;;;;;;;;5066329;27;101331;-68
2022/03/01 09:35:30;;;;;;;16.13;14.43;;;;;;;;;;5059904;27;100891;-67
2022/03/01 09:37:56;;;;;;;19.25;14.20;;;;;;;;;;5062519;27;99410;-68
2022/03/01 09:40:23;;;;;;;18.42;14.48;;;;;;;;;;5061153;27;100339;-68
2022/03/01 09:42:50;;;;;;;25.17;14.82;;;;;;;;;;5054457;27;100465;-67
2022/03/01 09:45:23;;;;;;;21.98;15.10;;;;;;;;;;5056081;27;100985;-67
2022/03/01 09:47:51;;;;;;;20.50;14.60;;;;;;;;;;5063242;27;100091;-67
2022/03/01 09:50:17;;;;;;;16.98;14.50;;;;;;;;;;5052019;27;98655;-67
2022/03/01 09:52:44;;;;;;;19.15;13.77;;;;;;;;;;5067063;27;100387;-67
2022/03/01 09:55:10;;;;;;;18.15;14.20;;;;;;;;;;5057390;27;100183;-67
2022/03/01 09:57:37;;;;;;;24.40;13.57;;;;;;;;;;5059312;27;98524;-68
2022/03/01 10:00:04;;;;;;;15.57;11.55;;;;;;;;;;5062116;27;99012;-68
2022/03/01 10:02:36;;;;;;;;;;;;;;;;;;5066418;27;98785;-68
2022/03/01 10:05:04;;;;;;;17.95;14.52;;;;;;;;;;5067944;27;109440;-69
2022/03/01 10:07:31;;;;;;;19.08;13.98;;;;;;;;;;5068283;27;100573;-66
2022/03/01 10:10:27;;;;;;;19.75;13.80;;;;;;;;;;5058694;27;100109;-67
2022/03/01 10:12:54;;;;;;;20.27;12.95;;;;;;;;;;5051437;27;102221;-66
2022/03/01 10:15:26;;;;;;;14.85;12.50;;;;;;;;;;5063128;27;100500;-67
2022/03/01 10:17:52;;;;;;;16.23;13.80;;;;;;;;;;5055601;27;99746;-67
2022/03/01 10:20:19;;;;;;;20.42;14.52;;;;;;;;;;5062869;27;100622;-67
2022/03/01 10:22:52;;;;;;;18.55;14.00;;;;;;;;;;5060977;27;100252;-67
2022/03/01 10:25:20;;;;;;;14.32;12.82;;;;;;;;;;5038626;27;100032;-67
2022/03/01 10:27:48;;;;;;;33.85;14.27;;;;;;;;;;5062296;27;100555;-67
2022/03/01 10:30:25;;;;;;;19.00;13.40;;;;;;;;;;5063793;27;99322;-68
2022/03/01 10:33:01;;;;;;;25.15;14.13;;;;;;;;;;5059964;27;99359;-67
2022/03/01 10:35:27;;;;;;;21.00;15.43;;;;;;;;;;5061825;27;100705;-67
2022/03/01 10:37:54;;;;;;;20.15;14.23;;;;;;;;;;5063202;27;98754;-67
2022/03/01 10:40:21;;;;;;;14.73;13.23;;;;;;;;;;5063528;27;99129;-67
2022/03/01 10:43:00;;;;;;;17.95;14.35;;;;;;;;;;5058701;27;99540;-67
2022/03/01 10:45:34;;;;;;;15.23;13.63;;;;;;;;;;5061838;27;99612;-67
2022/03/01 10:48:01;;;;;;;18.45;14.20;;;;;;;;;;5054326;27;99899;-68
2022/03/01 10:50:27;;;;;;;17.90;14.40;;;;;;;;;;5058759;27;100289;-68
2022/03/01 10:52:54;;;;;;;20.10;14.20;;;;;;;;;;5065702;27;99060;-67
2022/03/01 10:55:22;;;;;;;20.65;14.57;;;;;;;;;;5062549;27;100279;-67
2022/03/01 10:57:57;;;;;;;19.13;14.90;;;;;;;;;;5060717;27;99119;-67
2022/03/01 11:00:23;;;;;;;16.52;14.68;;;;;;;;;;5054631;27;98609;-67
2022/03/01 11:02:50;;;;;;;21.23;14.02;;;;;;;;;;5064868;27;98787;-67
2022/03/01 11:05:16;;;;;;;18.17;14.90;;;;;;;;;;5058421;27;98635;-67
2022/03/01 11:08:04;;;;;;;16.98;13.80;;;;;;;;;;5058132;27;99632;-67
2022/03/01 11:10:32;;;;;;;19.40;15.23;;;;;;;;;;5061526;27;100925;-67
2022/03/01 11:13:00;;;;;;;17.40;14.30;;;;;;;;;;5064644;27;98607;-68
2022/03/01 11:15:47;;;;;;;16.70;14.48;;;;;;;;;;5068866;27;100123;-68
2022/03/01 11:18:13;;;;;;;;;;;;;;;;;;5055697;27;101458;-67
2022/03/01 11:20:42;;;;;;;14.65;12.82;;;;;;;;;;5064752;27;128883;-67
2022/03/01 11:23:10;;;;;;;21.20;14.30;;;;;;;;;;5059453;27;99590;-67
2022/03/01 11:25:47;;;;;;;21.00;15.00;;;;;;;;;;5064053;27;98880;-66
2022/03/01 11:28:15;;;;;;;17.98;14.40;;;;;;;;;;5058763;27;99732;-66
2022/03/01 11:30:51;;;;;;;22.02;14.80;;;;;;;;;;5063109;27;99566;-67
2022/03/01 11:33:25;;;;;;;14.90;13.32;;;;;;;;;;5057982;27;100230;-67
2022/03/01 11:35:53;;;;;;;17.55;13.95;;;;;;;;;;5057159;27;99400;-66
2022/03/01 11:38:24;;;;;;;20.83;14.48;;;;;;;;;;5068247;27;99678;-66
2022/03/01 11:41:06;;;;;;;19.08;15.73;;;;;;;;;;5066452;27;98741;-67
2022/03/01 11:43:35;;;;;;;17.88;14.65;;;;;;;;;;5063300;27;99388;-67
2022/03/01 11:46:12;;;;;;;18.88;14.55;;;;;;;;;;5065255;27;99068;-66
2022/03/01 11:48:43;;;;;;;17.23;14.80;;;;;;;;;;5066914;27;100306;-67
2022/03/01 11:51:09;;;;;;;19.67;14.77;;;;;;;;;;5065183;27;100252;-67
2022/03/01 11:53:37;;;;;;;25.33;15.75;;;;;;;;;;5069309;27;97843;-66
2022/03/01 11:56:05;;;;;;;18.23;14.43;;;;;;;;;;5069399;27;99331;-66
2022/03/01 11:58:34;;;;;;;22.88;15.07;;;;;;;;;;5068519;27;99603;-67
2022/03/01 12:01:04;;;;;;;16.90;14.95;;;;;;;;;;5071364;27;99355;-66
2022/03/01 12:03:30;;;;;;;19.15;15.63;;;;;;;;;;5070182;27;100503;-66
2022/03/01 12:05:57;;;;;;;17.80;15.32;;;;;;;;;;5068515;27;98597;-66
2022/03/01 12:08:27;;;;;;;18.65;14.38;;;;;;;;;;5061726;27;99256;-66
2022/03/01 12:11:04;;;;;;;21.80;15.38;;;;;;;;;;5069400;27;99397;-66
2022/03/01 12:13:41;;;;;;;22.23;16.15;;;;;;;;;;5060106;27;99178;-67
2022/03/01 12:16:09;;;;;;;21.77;15.45;;;;;;;;;;5068469;27;99275;-66
2022/03/01 12:18:38;;;;;;;19.95;15.35;;;;;;;;;;5070151;27;98458;-67
2022/03/01 12:21:06;;;;;;;22.05;15.45;;;;;;;;;;5070988;27;98647;-67
2022/03/01 12:23:37;;;;;;;19.23;15.55;;;;;;;;;;5069444;27;99480;-67
2022/03/01 12:26:05;;;;;;;20.80;15.20;;;;;;;;;;5067740;27;100775;-68
2022/03/01 12:28:39;;;;;;;21.80;14.50;;;;;;;;;;5061910;27;99667;-68
2022/03/01 12:31:06;;;;;;;18.63;15.70;;;;;;;;;;5069055;27;100302;-68
2022/03/01 12:33:32;;;;;;;20.85;14.25;;;;;;;;;;5068960;27;98997;-67
2022/03/01 12:36:03;;;;;;;18.92;15.38;;;;;;;;;;5069102;27;99273;-66
2022/03/01 12:38:31;;;;;;;17.98;15.95;;;;;;;;;;5068982;27;100294;-66
2022/03/01 12:41:08;;;;;;;19.38;15.60;;;;;;;;;;5068729;27;98636;-66
2022/03/01 12:43:35;;;;;;;19.80;16.45;;;;;;;;;;5065137;27;99412;-66
2022/03/01 12:46:01;;;;;;;19.42;15.48;;;;;;;;;;5064651;27;98609;-66
2022/03/01 12:48:27;;;;;;;21.67;14.82;;;;;;;;;;5068981;27;99852;-66
2022/03/01 12:50:54;;;;;;;16.98;14.13;;;;;;;;;;5068784;27;100920;-66
2022/03/01 12:53:21;;;;;;;17.92;14.43;;;;;;;;;;5067854;27;98567;-66
2022/03/01 12:55:50;;;;;;;17.70;15.02;;;;;;;;;;5068674;27;100070;-65
2022/03/01 12:58:17;;;;;;;19.23;13.60;;;;;;;;;;5068318;27;100247;-66
2022/03/01 13:00:44;;;;;;;19.17;14.02;;;;;;;;;;5067073;27;98784;-65
2022/03/01 13:03:10;;;;;;;23.25;15.35;;;;;;;;;;5067969;27;99033;-65
2022/03/01 13:05:37;;;;;;;20.75;15.55;;;;;;;;;;5070785;27;99389;-66
2022/03/01 13:08:13;;;;;;;23.25;15.68;;;;;;;;;;5068766;27;97846;-66
2022/03/01 13:10:40;;;;;;;19.50;15.73;;;;;;;;;;5068784;27;99505;-66
2022/03/01 13:13:07;;;;;;;23.17;14.82;;;;;;;;;;5068306;27;98547;-66
2022/03/01 13:15:33;;;;;;;26.20;15.18;;;;;;;;;;5067149;27;99536;-66
2022/03/01 13:18:01;;;;;;;16.30;13.57;;;;;;;;;;5068591;27;100456;-66
2022/03/01 13:20:27;;;;;;;19.40;13.95;;;;;;;;;;5067581;27;98540;-66
2022/03/01 13:23:07;;;;;;;21.70;15.13;;;;;;;;;;5067620;27;99147;-67
2022/03/01 13:25:34;;;;;;;21.90;14.95;;;;;;;;;;5067556;27;99285;-67
2022/03/01 13:28:02;;;;;;;17.75;13.45;;;;;;;;;;5071294;27;98880;-65
2022/03/01 13:30:29;;;;;;;20.85;15.60;;;;;;;;;;5066371;27;99294;-66
2022/03/01 13:33:06;;;;;;;17.73;15.30;;;;;;;;;;5068747;27;97853;-66
2022/03/01 13:35:33;;;;;;;19.08;15.95;;;;;;;;;;5067802;27;98533;-66
2022/03/01 13:38:00;;;;;;;18.27;15.73;;;;;;;;;;5066105;27;99230;-68
2022/03/01 13:40:27;;;;;;;19.90;16.25;;;;;;;;;;5067607;27;99320;-66
2022/03/01 13:43:10;;;;;;;23.60;17.80;;;;;;;;;;5068494;27;100075;-66
2022/03/01 13:45:38;;;;;;;26.30;18.92;;;;;;;;;;5067186;27;101008;-67
2022/03/01 13:48:12;;;;;;;29.75;20.48;;;;;;;;;;5068075;27;99229;-67
2022/03/01 13:50:39;;;;;;;32.78;17.63;;;;;;;;;;5069762;27;99928;-67
2022/03/01 13:53:13;;;;;;;24.52;15.63;;;;;;;;;;5065152;27;98637;-67
2022/03/01 13:55:41;;;;;;;27.13;17.80;;;;;;;;;;5067425;27;99708;-66
2022/03/01 13:58:10;;;;;;;17.92;15.80;;;;;;;;;;5061261;27;99476;-66
2022/03/01 14:00:42;;;;;;;28.02;19.95;;;;;;;;;;5067793;27;98611;-67
2022/03/01 14:03:12;;;;;;;33.58;17.73;;;;;;;;;;5067036;27;99425;-67
2022/03/01 14:05:41;;;;;;;20.25;16.45;;;;;;;;;;5065554;27;99967;-66
2022/03/01 14:08:09;;;;;;;20.08;17.20;;;;;;;;;;5067243;27;98564;-66
2022/03/01 14:10:37;;;;;;;23.52;17.90;;;;;;;;;;5067104;27;99113;-66
2022/03/01 14:13:05;;;;;;;21.00;17.15;;;;;;;;;;5070006;27;100287;-67
2022/03/01 14:15:42;;;;;;;21.25;17.10;;;;;;;;;;5063866;27;99465;-67
2022/03/01 14:18:08;;;;;;;23.40;17.40;;;;;;;;;;5060803;27;100341;-66